Airfield :
LOGIN :

Register | Disclaimer

   EN    FR    IT 

 










Legend :    VFR   Marginal VFR   IFR   Intensive IFR   Very Intensive IFR
Visi :
Ceiling :
>= 8 km
>= 3000ft
5 to 8 km
1000 to 3000 ft
1500m to 5 km
500 to 1000 ft
800 to 1500m
200 to 500 ft
< 800m
< 200 ft
Symbols :   Thunderstorms  Fog  Heavy snow  Heavy precipitations  Wind > 20 kt
SIGMETs :     Misc.  Thunderstorms  Icing  Turbulence  Mountain Waves  Volcanic Ashes







- Airport Elevation : 274 ft
- IATA code : PUY


LDPL - Pula

CURRENT METAR :
  • 192200Z AUTO 05010KT 9999 OVC054/// 13/07 Q1011

EXPIRED METARs :
  • 192130Z 04009KT 9999 FEW040 BKN055 13/07 Q1011 BECMG 06012KT
  • 192100Z 05009KT 9999 FEW040 BKN055 13/07 Q1011 BECMG 06012KT
  • 192030Z 05008KT 9999 FEW035 BKN050 13/08 Q1010 BECMG 06012KT
  • 192000Z 05007KT 360V070 9999 FEW035 BKN050 12/08 Q1010 BECMG 06012KT
  • 191930Z 05007KT 9999 FEW030 BKN045 12/08 Q1010 BECMG 06012KT

TAF AMD TAF LDPL
Valid from the 19 at 18:00 until the 20 at 18:00 UTC


191735Z 1918/2018 06010KT 9999 FEW035 BKN050 TX16/2013Z TN12/2005Z
PROB30
TEMPO 1918/2000 24015KT TSRA FEW025CB BKN045
TEMPO 1920/2005 06016G30KT
BECMG 2012/2014 27008KT
No reported NOTAMs for that airfield.
1 SIGMET reported for the Zagreb FIR (LDZO) :
 
Embedded thunderstorms
LDZO SIGMET 11 VALID 191930/192300 LDZA
LDZO ZAGREB FIR EMBD TS FCST WI N4220 E01613 - N4331 E01430 - N4352 E01641 - N4303 E01739 - N4216 E01633 - N4220 E01613 TOP FL320 MOV ENE 5KT NC=



MET'MAP, your aeronautical weather chart ! - Copyright ORBIFLY December 2007 - Disclaimer

ORBIFLY MET'MAP TEAM :

Programming & Development : Alexandra Zaïnal
Concept & Development : Baudouin d'Aumeries
Co-Development & Prog : Marc-Olivier Méhu
Technical & hardware support : Manuel Goepfert

Contact : metmap@orbifly.com




SOURCES & CREDITS :

   NOAA